createdAt,value
2022-12-06T00:01:32.570Z,82.40
2022-12-06T00:04:03.850Z,82.64
2022-12-06T00:06:33.847Z,82.69
2022-12-06T00:09:02.053Z,84.68
2022-12-06T00:11:32.757Z,83.21
2022-12-06T00:14:03.288Z,85.02
2022-12-06T00:16:32.318Z,84.07
2022-12-06T00:19:00.969Z,83.56
2022-12-06T00:21:33.851Z,84.43
2022-12-06T00:24:11.020Z,84.57
2022-12-06T00:26:41.410Z,85.51
2022-12-06T00:29:13.609Z,85.97
2022-12-06T00:31:41.689Z,86.81
2022-12-06T00:34:10.090Z,86.83
2022-12-06T00:36:39.836Z,86.38
2022-12-06T00:39:17.837Z,85.94
2022-12-06T00:41:46.160Z,86.18
2022-12-06T00:44:14.081Z,86.51
2022-12-06T00:46:41.969Z,87.62
2022-12-06T00:49:10.400Z,87.15
2022-12-06T00:51:38.824Z,88.12
2022-12-06T00:54:07.098Z,86.64
2022-12-06T00:56:36.541Z,87.06
2022-12-06T00:59:05.435Z,86.21
2022-12-06T01:01:36.403Z,87.79
2022-12-06T01:04:06.520Z,87.29
2022-12-06T01:06:35.984Z,90.34
2022-12-06T01:09:09.797Z,90.79
2022-12-06T01:11:38.443Z,89.30
2022-12-06T01:14:06.717Z,88.44
2022-12-06T01:16:35.467Z,88.03
2022-12-06T01:19:05.677Z,88.49
2022-12-06T01:21:34.686Z,90.10
2022-12-06T01:24:02.760Z,91.30
2022-12-06T01:26:33.842Z,90.49
2022-12-06T01:29:04.270Z,90.20
2022-12-06T01:31:37.548Z,91.98
2022-12-06T01:34:08.490Z,90.27
2022-12-06T01:36:36.420Z,90.25
2022-12-06T01:39:07.157Z,89.13
2022-12-06T01:41:35.712Z,88.56
2022-12-06T01:44:05.340Z,90.27
2022-12-06T01:46:42.828Z,91.03
2022-12-06T01:49:14.278Z,89.66
2022-12-06T01:51:45.639Z,88.93
2022-12-06T01:54:15.429Z,91.27
2022-12-06T01:56:47.285Z,93.51
2022-12-06T01:59:15.964Z,92.28
2022-12-06T02:01:44.480Z,92.61
2022-12-06T02:04:13.090Z,92.41
2022-12-06T02:06:41.330Z,95.65
2022-12-06T02:09:10.589Z,93.88
2022-12-06T02:11:39.449Z,93.23
2022-12-06T02:14:10.548Z,93.69
2022-12-06T02:17:10.382Z,92.38
2022-12-06T02:19:54.409Z,93.40
2022-12-06T02:22:36.170Z,92.70
2022-12-06T02:25:23.009Z,91.26
2022-12-06T02:28:28.247Z,91.63
2022-12-06T02:31:00.283Z,86.38
2022-12-06T02:33:36.821Z,90.46
2022-12-06T02:36:09.290Z,91.41
2022-12-06T02:38:54.385Z,91.48
2022-12-06T02:41:38.548Z,89.05
2022-12-06T02:44:10.758Z,88.31
2022-12-06T02:46:39.233Z,89.33
2022-12-06T02:49:08.859Z,88.83
2022-12-06T02:51:37.735Z,89.98
2022-12-06T02:54:08.293Z,89.23
2022-12-06T02:56:37.000Z,89.41
2022-12-06T02:59:05.869Z,88.98
2022-12-06T03:01:35.629Z,88.48
2022-12-06T03:04:31.859Z,87.88
2022-12-06T03:07:48.641Z,90.25
2022-12-06T03:10:27.939Z,89.69
2022-12-06T03:13:11.420Z,87.17
2022-12-06T03:15:48.664Z,88.41
2022-12-06T03:18:32.150Z,90.09
2022-12-06T03:21:05.242Z,89.89
2022-12-06T03:23:41.131Z,90.97
2022-12-06T03:26:12.160Z,91.31
2022-12-06T03:28:41.841Z,92.05
2022-12-06T03:31:12.948Z,90.11
2022-12-06T03:33:46.711Z,90.07
2022-12-06T03:36:15.808Z,91.61
2022-12-06T03:38:53.389Z,91.97
2022-12-06T03:41:25.429Z,89.64
2022-12-06T03:43:53.708Z,91.79
2022-12-06T03:46:27.690Z,90.17
2022-12-06T03:49:02.582Z,92.96
2022-12-06T03:51:33.690Z,91.57
2022-12-06T03:54:05.330Z,90.86
2022-12-06T03:56:37.035Z,91.02
2022-12-06T03:59:06.352Z,91.12
2022-12-06T04:01:34.734Z,91.55
2022-12-06T04:04:03.313Z,90.34
2022-12-06T04:06:31.616Z,88.81
2022-12-06T04:09:19.521Z,91.00
2022-12-06T04:11:47.840Z,90.96
2022-12-06T04:14:15.899Z,90.68
2022-12-06T04:17:02.365Z,94.54
2022-12-06T04:19:30.788Z,92.12
2022-12-06T04:22:17.604Z,91.09
2022-12-06T04:24:45.971Z,94.71
2022-12-06T04:27:32.750Z,92.70
2022-12-06T04:30:19.824Z,93.17
2022-12-06T04:33:06.541Z,90.35
2022-12-06T04:35:53.601Z,89.53
2022-12-06T04:38:40.624Z,87.86
2022-12-06T04:41:10.170Z,89.14
2022-12-06T04:43:44.261Z,88.47
2022-12-06T04:46:14.611Z,87.92
2022-12-06T04:48:42.641Z,88.54
2022-12-06T04:51:13.280Z,88.98
2022-12-06T04:53:41.790Z,90.64
2022-12-06T04:56:09.819Z,90.68
2022-12-06T04:58:38.042Z,91.64
2022-12-06T05:01:06.492Z,91.24
2022-12-06T05:03:36.419Z,88.42
2022-12-06T05:06:08.358Z,85.58
2022-12-06T05:08:36.400Z,87.15
2022-12-06T05:11:04.459Z,89.19
2022-12-06T05:13:32.889Z,87.97
2022-12-06T05:16:03.058Z,87.21
2022-12-06T05:18:31.414Z,87.77
2022-12-06T05:21:05.961Z,85.61
2022-12-06T05:23:35.051Z,85.56
2022-12-06T05:26:09.441Z,89.98
2022-12-06T05:28:37.550Z,88.20
2022-12-06T05:31:06.247Z,88.67
2022-12-06T05:33:34.432Z,88.69
2022-12-06T05:36:09.700Z,89.21
2022-12-06T05:38:38.059Z,87.29
2022-12-06T05:41:06.603Z,87.22
2022-12-06T05:43:34.595Z,86.69
2022-12-06T05:46:03.139Z,86.70
2022-12-06T05:48:31.140Z,89.42
2022-12-06T05:50:59.151Z,88.42
2022-12-06T05:53:27.486Z,88.37
2022-12-06T05:55:55.451Z,88.60
2022-12-06T05:58:23.452Z,86.62
2022-12-06T06:00:51.869Z,85.68
2022-12-06T06:03:20.379Z,84.49
2022-12-06T06:05:50.162Z,86.29
2022-12-06T06:08:18.716Z,87.69
2022-12-06T06:10:47.111Z,88.30
2022-12-06T06:13:15.161Z,87.37
2022-12-06T06:15:43.331Z,84.97
2022-12-06T06:18:11.701Z,88.69
2022-12-06T06:20:39.589Z,91.36
2022-12-06T06:23:07.720Z,91.17
2022-12-06T06:25:36.007Z,91.98
2022-12-06T06:28:04.005Z,91.58
2022-12-06T06:30:31.890Z,91.68
2022-12-06T06:33:00.281Z,92.07
2022-12-06T06:35:28.609Z,90.19
2022-12-06T06:37:56.590Z,90.65
2022-12-06T06:40:24.932Z,90.94
2022-12-06T06:42:52.909Z,90.81
2022-12-06T06:45:26.767Z,89.77
2022-12-06T06:47:56.738Z,89.35
2022-12-06T06:50:24.730Z,89.66
2022-12-06T06:52:53.010Z,86.68
2022-12-06T06:55:21.320Z,86.63
2022-12-06T06:57:49.385Z,87.44
2022-12-06T07:00:18.131Z,85.56
2022-12-06T07:02:46.601Z,85.92
2022-12-06T07:05:14.694Z,84.48
2022-12-06T07:07:42.883Z,85.49
2022-12-06T07:10:11.820Z,87.43
2022-12-06T07:12:39.809Z,85.04
2022-12-06T07:15:10.093Z,86.93
2022-12-06T07:17:38.490Z,84.88
2022-12-06T07:20:07.355Z,86.73
2022-12-06T07:22:35.440Z,86.45
2022-12-06T07:25:03.968Z,87.10
2022-12-06T07:30:17.383Z,89.11
2022-12-06T07:32:50.141Z,86.53
2022-12-06T07:35:18.153Z,84.46
2022-12-06T07:37:48.247Z,89.29
2022-12-06T07:40:16.972Z,87.95
2022-12-06T07:43:05.132Z,88.46
2022-12-06T07:45:33.582Z,87.71
2022-12-06T07:48:01.623Z,86.83
2022-12-06T07:50:29.621Z,87.18
2022-12-06T07:52:59.202Z,84.90
2022-12-06T07:55:27.368Z,84.63
2022-12-06T07:57:55.487Z,86.54
2022-12-06T08:00:23.973Z,86.71
2022-12-06T08:02:52.372Z,84.53
2022-12-06T08:05:20.391Z,85.01
2022-12-06T08:07:48.630Z,87.05
2022-12-06T08:10:17.181Z,86.88
2022-12-06T08:12:45.131Z,86.30
2022-12-06T08:15:13.462Z,84.29
2022-12-06T08:17:42.384Z,83.78
2022-12-06T08:20:11.132Z,84.16
2022-12-06T08:22:39.242Z,84.12
2022-12-06T08:25:08.092Z,84.01
2022-12-06T08:27:36.235Z,83.56
2022-12-06T08:30:04.847Z,85.69
2022-12-06T08:32:33.298Z,83.14
2022-12-06T08:35:01.504Z,83.32
2022-12-06T08:37:29.644Z,83.12
2022-12-06T08:39:58.491Z,80.29
2022-12-06T08:42:26.885Z,80.18
2022-12-06T08:44:54.805Z,81.01
2022-12-06T08:47:23.365Z,78.37
2022-12-06T08:49:51.405Z,81.41
2022-12-06T08:52:21.233Z,80.38
2022-12-06T08:54:49.911Z,78.67
2022-12-06T08:57:17.902Z,82.20
2022-12-06T08:59:48.207Z,81.64
2022-12-06T09:02:16.945Z,80.29
2022-12-06T09:04:45.245Z,81.44
2022-12-06T09:07:13.243Z,81.79
2022-12-06T09:09:41.713Z,80.98
2022-12-06T09:12:09.772Z,80.07
2022-12-06T09:14:38.066Z,77.80
2022-12-06T09:17:06.950Z,75.12
2022-12-06T09:19:35.267Z,74.77
2022-12-06T09:22:03.362Z,72.52
2022-12-06T09:24:31.849Z,72.27
2022-12-06T09:26:59.875Z,73.35
2022-12-06T09:29:27.981Z,69.49
2022-12-06T09:31:56.363Z,70.54
2022-12-06T09:34:24.364Z,68.62
2022-12-06T09:37:11.232Z,71.48
2022-12-06T09:39:49.173Z,72.19
2022-12-06T09:42:29.068Z,74.56
2022-12-06T09:45:28.266Z,73.32
2022-12-06T09:48:22.380Z,74.62
2022-12-06T09:51:19.221Z,75.95
2022-12-06T09:54:09.540Z,75.48
2022-12-06T09:57:04.092Z,71.57
2022-12-06T09:59:35.304Z,66.10
2022-12-06T10:02:22.471Z,64.20
2022-12-06T10:05:08.823Z,63.09
2022-12-06T10:07:50.734Z,62.94
2022-12-06T10:10:26.712Z,63.85
2022-12-06T10:13:06.930Z,67.22
2022-12-06T10:16:04.721Z,67.23
2022-12-06T10:18:49.075Z,61.53
2022-12-06T10:21:55.292Z,57.50
2022-12-06T10:24:50.343Z,54.23
2022-12-06T10:27:41.959Z,51.75
2022-12-06T10:30:13.009Z,52.28
2022-12-06T10:32:56.244Z,53.93
2022-12-06T10:35:43.492Z,50.04
2022-12-06T10:38:53.671Z,48.29
2022-12-06T10:42:03.063Z,46.59
2022-12-06T10:44:42.071Z,45.15
2022-12-06T10:47:24.072Z,44.52
2022-12-06T10:49:58.596Z,45.03
2022-12-06T10:52:43.573Z,45.44
2022-12-06T10:55:12.300Z,45.35
2022-12-06T10:57:49.031Z,45.11
2022-12-06T11:00:20.641Z,45.24
2022-12-06T11:03:00.634Z,47.77
2022-12-06T11:05:37.285Z,45.85
2022-12-06T11:08:15.479Z,47.19
2022-12-06T11:10:46.162Z,48.84
2022-12-06T11:13:27.519Z,54.93
2022-12-06T11:16:01.106Z,55.80
2022-12-06T11:18:30.355Z,55.26
2022-12-06T11:21:15.994Z,52.33
2022-12-06T11:23:53.700Z,50.56
2022-12-06T11:26:36.289Z,49.34
2022-12-06T11:29:06.472Z,49.33
2022-12-06T11:32:09.254Z,50.20
2022-12-06T11:34:42.273Z,49.23
2022-12-06T11:37:16.763Z,48.93
2022-12-06T11:39:45.324Z,49.82
2022-12-06T11:42:15.609Z,55.55
2022-12-06T11:44:51.199Z,53.66
2022-12-06T11:47:23.877Z,52.11
2022-12-06T11:49:54.127Z,52.64
2022-12-06T11:52:28.751Z,56.78
2022-12-06T11:55:01.492Z,62.22
2022-12-06T11:57:35.307Z,62.44
2022-12-06T12:00:16.786Z,62.42
2022-12-06T12:02:47.724Z,62.22
2022-12-06T12:05:25.942Z,61.11
2022-12-06T12:08:18.719Z,59.67
2022-12-06T12:10:59.175Z,59.53
2022-12-06T12:13:47.172Z,59.02
2022-12-06T12:16:26.448Z,61.21
2022-12-06T12:19:00.901Z,61.46
2022-12-06T12:21:54.066Z,64.18
2022-12-06T12:25:18.324Z,62.65
2022-12-06T12:27:48.393Z,63.55
2022-12-06T12:30:20.483Z,64.25
2022-12-06T12:32:50.613Z,63.21
2022-12-06T12:35:22.058Z,64.44
2022-12-06T12:37:56.713Z,61.77
2022-12-06T12:40:27.995Z,61.93
2022-12-06T12:43:24.393Z,61.99
2022-12-06T12:46:18.405Z,61.26
2022-12-06T12:48:50.411Z,61.31
2022-12-06T12:51:48.175Z,62.67
2022-12-06T12:54:27.411Z,61.46
2022-12-06T12:56:56.681Z,61.24
2022-12-06T12:59:31.442Z,61.83
2022-12-06T13:02:20.188Z,61.87
2022-12-06T13:05:05.302Z,61.92
2022-12-06T13:07:43.450Z,62.72
2022-12-06T13:10:33.421Z,60.66
2022-12-06T13:13:15.324Z,64.02
2022-12-06T13:15:47.719Z,64.57
2022-12-06T13:18:28.971Z,65.46
2022-12-06T13:21:04.421Z,66.18
2022-12-06T13:23:35.641Z,68.27
2022-12-06T13:26:27.650Z,66.26
2022-12-06T13:29:02.127Z,66.90
2022-12-06T13:31:34.217Z,66.26
2022-12-06T13:34:23.593Z,66.16
2022-12-06T13:36:52.531Z,67.16
2022-12-06T13:39:33.016Z,68.38
2022-12-06T13:42:19.476Z,69.01
2022-12-06T13:44:50.972Z,70.48
2022-12-06T13:47:29.468Z,68.44
2022-12-06T13:50:00.089Z,68.82
2022-12-06T13:52:44.401Z,69.15
2022-12-06T13:55:38.861Z,69.84
2022-12-06T13:58:07.002Z,70.40
2022-12-06T14:00:41.692Z,71.31
2022-12-06T14:03:19.409Z,71.74
2022-12-06T14:06:09.061Z,71.64
2022-12-06T14:08:43.883Z,72.13
2022-12-06T14:11:29.044Z,72.96
2022-12-06T14:14:00.849Z,72.28
2022-12-06T14:16:43.526Z,71.95
2022-12-06T14:19:44.422Z,71.34
2022-12-06T14:22:29.701Z,71.75
2022-12-06T14:25:19.298Z,72.66
2022-12-06T14:27:51.284Z,71.49
2022-12-06T14:30:26.502Z,71.04
2022-12-06T14:32:58.542Z,71.33
2022-12-06T14:35:30.291Z,70.16
2022-12-06T14:38:06.703Z,71.55
2022-12-06T14:40:55.007Z,69.84
2022-12-06T14:43:25.342Z,69.71
2022-12-06T14:45:56.358Z,69.36
2022-12-06T14:48:24.801Z,70.45
2022-12-06T14:50:58.912Z,70.18
2022-12-06T14:53:34.582Z,69.44
2022-12-06T14:56:05.381Z,72.60
2022-12-06T14:58:39.541Z,72.31
2022-12-06T15:01:16.584Z,71.15
2022-12-06T15:03:46.898Z,71.73
2022-12-06T15:06:22.370Z,70.96
2022-12-06T15:08:57.180Z,72.77
2022-12-06T15:11:49.091Z,72.91
2022-12-06T15:14:22.714Z,72.69
2022-12-06T15:17:06.692Z,73.15
2022-12-06T15:19:37.634Z,73.48
2022-12-06T15:22:25.643Z,72.49
2022-12-06T15:24:56.740Z,73.74
2022-12-06T15:27:27.227Z,74.34
2022-12-06T15:29:55.814Z,72.35
2022-12-06T15:32:26.603Z,73.54
2022-12-06T15:34:54.644Z,74.85
2022-12-06T15:37:45.053Z,73.97
2022-12-06T15:40:19.508Z,74.83
2022-12-06T15:43:05.624Z,75.12
2022-12-06T15:45:35.876Z,74.42
2022-12-06T15:48:06.586Z,73.05
2022-12-06T15:50:36.444Z,71.95
2022-12-06T15:53:07.383Z,72.59
2022-12-06T15:55:38.492Z,73.46
2022-12-06T15:58:06.950Z,73.61
2022-12-06T16:00:35.152Z,73.43
2022-12-06T16:03:05.666Z,74.26
2022-12-06T16:05:33.942Z,74.89
2022-12-06T16:08:03.621Z,74.89
2022-12-06T16:11:03.081Z,73.35
2022-12-06T16:13:25.591Z,74.42
2022-12-06T16:15:54.160Z,74.22
2022-12-06T16:18:24.500Z,73.71
2022-12-06T16:20:52.741Z,73.30
2022-12-06T16:26:38.442Z,73.54
2022-12-06T16:29:20.130Z,73.26
2022-12-06T16:31:51.234Z,74.84
2022-12-06T16:34:20.205Z,73.17
2022-12-06T16:37:04.664Z,73.31
2022-12-06T16:39:35.618Z,71.40
2022-12-06T16:42:06.941Z,71.46
2022-12-06T16:44:53.589Z,70.45
2022-12-06T16:49:55.319Z,71.51
2022-12-06T16:52:23.437Z,72.64
2022-12-06T16:54:51.702Z,73.12
2022-12-06T16:57:21.222Z,72.19
2022-12-06T16:59:49.842Z,72.89
2022-12-06T17:02:31.592Z,74.43
2022-12-06T17:05:02.296Z,73.10
2022-12-06T17:07:31.071Z,70.82
2022-12-06T17:10:00.378Z,71.45
2022-12-06T17:12:28.822Z,69.45
2022-12-06T17:15:01.058Z,70.15
2022-12-06T17:17:31.685Z,69.41
2022-12-06T17:19:59.901Z,69.94
2022-12-06T17:22:28.144Z,70.45
2022-12-06T17:24:56.642Z,71.06
2022-12-06T17:27:25.261Z,70.76
2022-12-06T17:29:54.721Z,70.70
2022-12-06T17:32:24.661Z,70.20
2022-12-06T17:34:54.618Z,69.76
2022-12-06T17:37:23.710Z,70.90
2022-12-06T17:39:52.347Z,71.39
2022-12-06T17:42:38.979Z,70.44
2022-12-06T17:45:11.383Z,71.10
2022-12-06T17:47:39.663Z,72.23
2022-12-06T17:50:09.023Z,72.05
2022-12-06T17:52:37.664Z,73.37
2022-12-06T17:55:06.293Z,76.52
2022-12-06T17:57:34.720Z,78.63
2022-12-06T18:00:04.951Z,79.66
2022-12-06T18:02:35.306Z,78.08
2022-12-06T18:05:04.565Z,81.48
2022-12-06T18:07:33.577Z,81.48
2022-12-06T18:10:01.810Z,79.24
2022-12-06T18:12:32.118Z,79.91
2022-12-06T18:15:03.359Z,78.87
2022-12-06T18:17:32.182Z,78.67
2022-12-06T18:20:00.621Z,78.37
2022-12-06T18:22:28.511Z,76.32
2022-12-06T18:24:56.865Z,78.57
2022-12-06T18:27:26.650Z,77.95
2022-12-06T18:29:54.772Z,79.08
2022-12-06T18:32:23.090Z,79.97
2022-12-06T18:34:51.014Z,78.96
2022-12-06T18:37:19.064Z,76.84
2022-12-06T18:39:47.620Z,77.34
2022-12-06T18:42:15.633Z,77.72
2022-12-06T18:44:43.612Z,78.97
2022-12-06T18:47:12.035Z,77.75
2022-12-06T18:49:40.272Z,77.46
2022-12-06T18:52:08.316Z,75.54
2022-12-06T18:54:36.692Z,76.30
2022-12-06T18:57:06.640Z,76.99
2022-12-06T18:59:37.791Z,78.74
2022-12-06T19:02:06.145Z,82.70
2022-12-06T19:04:34.516Z,82.58
2022-12-06T19:07:02.407Z,80.85
2022-12-06T19:09:30.775Z,80.80
2022-12-06T19:11:58.792Z,80.24
2022-12-06T19:14:27.194Z,81.19
2022-12-06T19:16:55.572Z,79.97
2022-12-06T19:19:25.482Z,77.57
2022-12-06T19:21:57.524Z,77.13
2022-12-06T19:24:26.275Z,77.32
2022-12-06T19:26:55.381Z,75.29
2022-12-06T19:29:24.140Z,75.46
2022-12-06T19:31:52.442Z,76.38
2022-12-06T19:34:26.116Z,76.53
2022-12-06T19:36:55.108Z,76.01
2022-12-06T19:39:24.242Z,76.20
2022-12-06T19:42:10.660Z,76.80
2022-12-06T19:44:39.102Z,76.48
2022-12-06T19:47:07.152Z,75.38
2022-12-06T19:49:35.202Z,76.37
2022-12-06T19:52:03.992Z,76.03
2022-12-06T19:54:33.774Z,78.24
2022-12-06T19:57:02.057Z,75.19
2022-12-06T19:59:36.121Z,76.38
2022-12-06T20:02:04.624Z,74.98
2022-12-06T20:04:37.758Z,74.60
2022-12-06T20:07:06.011Z,74.79
2022-12-06T20:09:34.713Z,76.04
2022-12-06T20:12:04.616Z,76.81
2022-12-06T20:14:40.162Z,76.87
2022-12-06T20:17:11.931Z,74.12
2022-12-06T20:19:43.512Z,76.41
2022-12-06T20:22:13.133Z,74.29
2022-12-06T20:24:41.821Z,72.33
2022-12-06T20:27:10.745Z,70.65
2022-12-06T20:29:40.609Z,70.21
2022-12-06T20:32:10.951Z,69.33
2022-12-06T20:34:39.415Z,68.29
2022-12-06T20:37:07.523Z,68.59
2022-12-06T20:39:36.431Z,69.23
2022-12-06T20:42:07.173Z,69.21
2022-12-06T20:44:35.816Z,70.52
2022-12-06T20:47:04.533Z,71.44
2022-12-06T20:49:32.852Z,71.51
2022-12-06T20:52:03.060Z,72.12
2022-12-06T20:54:31.652Z,72.35
2022-12-06T20:56:59.742Z,70.37
2022-12-06T20:59:29.635Z,70.30
2022-12-06T21:01:58.568Z,71.60
2022-12-06T21:04:27.140Z,71.94
2022-12-06T21:06:55.542Z,72.84
2022-12-06T21:09:24.227Z,72.21
2022-12-06T21:11:52.273Z,73.86
2022-12-06T21:14:20.454Z,75.57
2022-12-06T21:16:48.821Z,75.84
2022-12-06T21:19:19.711Z,76.21
2022-12-06T21:21:50.392Z,76.34
2022-12-06T21:24:20.996Z,77.99
2022-12-06T21:26:49.584Z,78.87
2022-12-06T21:29:28.416Z,79.09
2022-12-06T21:32:01.392Z,76.91
2022-12-06T21:34:30.560Z,78.56
2022-12-06T21:37:01.459Z,79.76
2022-12-06T21:39:30.921Z,80.62
2022-12-06T21:41:59.615Z,81.05
2022-12-06T21:44:27.601Z,79.91
2022-12-06T21:46:55.784Z,78.87
2022-12-06T21:49:24.185Z,77.91
2022-12-06T21:52:00.187Z,80.76
2022-12-06T21:54:30.521Z,80.31
2022-12-06T21:56:58.723Z,81.41
2022-12-06T21:59:27.135Z,81.19
2022-12-06T22:01:55.509Z,80.97
2022-12-06T22:04:24.012Z,81.28
2022-12-06T22:06:52.561Z,80.12
2022-12-06T22:09:20.632Z,81.36
2022-12-06T22:11:49.202Z,81.72
2022-12-06T22:14:17.168Z,82.06
2022-12-06T22:16:45.093Z,83.46
2022-12-06T22:19:13.431Z,81.93
2022-12-06T22:21:41.482Z,81.94
2022-12-06T22:24:09.865Z,80.82
2022-12-06T22:26:38.310Z,79.68
2022-12-06T22:29:06.441Z,77.55
2022-12-06T22:31:34.626Z,76.19
2022-12-06T22:34:03.300Z,79.62
2022-12-06T22:36:32.041Z,79.27
2022-12-06T22:39:01.841Z,82.10
2022-12-06T22:41:30.770Z,81.79
2022-12-06T22:44:00.750Z,81.97
2022-12-06T22:46:30.154Z,81.04
2022-12-06T22:48:59.661Z,80.44
2022-12-06T22:51:30.254Z,82.04
2022-12-06T22:54:00.599Z,81.58
2022-12-06T22:56:30.016Z,80.32
2022-12-06T22:58:59.605Z,81.87
2022-12-06T23:01:33.181Z,79.68
2022-12-06T23:04:04.322Z,80.25
2022-12-06T23:06:33.320Z,81.95
2022-12-06T23:09:01.708Z,80.22
2022-12-06T23:11:31.534Z,77.68
2022-12-06T23:13:59.619Z,76.04
2022-12-06T23:16:29.992Z,77.61
2022-12-06T23:19:00.144Z,76.32
2022-12-06T23:21:31.754Z,76.51
2022-12-06T23:24:02.963Z,76.41
2022-12-06T23:26:34.184Z,76.39
2022-12-06T23:29:03.111Z,78.66
2022-12-06T23:31:34.172Z,79.19
2022-12-06T23:34:07.023Z,83.56
2022-12-06T23:36:35.982Z,81.52
2022-12-06T23:39:05.114Z,79.55
2022-12-06T23:41:34.283Z,79.53
2022-12-06T23:44:03.830Z,78.23
2022-12-06T23:46:34.785Z,75.37
2022-12-06T23:49:03.973Z,73.68
2022-12-06T23:51:36.546Z,73.86
2022-12-06T23:54:08.161Z,75.44
2022-12-06T23:56:37.921Z,77.30
2022-12-06T23:59:09.591Z,79.17
